Flight Track Log - Related Links

Times and Time Zones

All times are in EDT time to prevent confusion due to time zone crossing. See the C-GCFB flight status page for this flight to view local times or setup timezone preferences in your user account.

Time Position Orientation Groundspeed Altitude Reporting Facility
EDT Latitude Longitude Course Direction KTS MPH feet Rate Location/Type
Wed 08:24:42 AM 52.1000 -113.9167 179° South 150 173 5,300  Level Edmonton Center
Wed 08:25:42 AM 52.0667 -113.9167 180° South 160 184 6,200 1,100 Climbing Edmonton Center
Wed 08:26:42 AM 52.0167 -113.9000 168° South 160 184 7,500 1,050 Climbing Edmonton Center
Wed 08:27:42 AM 51.9833 -113.8667 148° Southeast 160 184 8,300 900 Climbing Edmonton Center
Wed 08:28:00 AM 51.8515 -113.8818 179° South  Level Estimated
Wed 08:28:42 AM 51.9333 -113.8500 168° South 170 196 9,300  Level Edmonton Center
Wed 08:29:00 AM 51.7964 -113.8798 179° South  Level Estimated
Wed 08:29:42 AM 51.8833 -113.8167 158° South 180 207 10,400  Level Edmonton Center
Wed 08:30:42 AM 51.8333 -113.8167 180° South 180 207 10,900 250 Climbing Edmonton Center
Wed 08:31:42 AM 51.7667 -113.7667 155° Southeast 210 242 10,900  Level Edmonton Center
Wed 08:32:42 AM 51.7167 -113.7333 158° South 220 253 10,900  Level Edmonton Center
Wed 08:33:42 AM 51.6500 -113.7167 171° South 220 253 10,900 -50 Level Edmonton Center
Wed 08:34:42 AM 51.5833 -113.6833 163° South 220 253 10,800 -350 Descending Edmonton Center
Wed 08:35:42 AM 51.5333 -113.7000 192° South 200 230 10,200 15 Descending Edmonton Center
Wed 10:07:49 AM 52.3000 -114.4000 331° Northwest 150 173 12,200 32 Climbing Edmonton Center
Wed 10:08:49 AM 52.3000 -114.4667 270° West 170 196 13,200 1,050 Climbing Edmonton Center
Wed 10:09:49 AM 52.3333 -114.5333 309° West 170 196 14,300 1,050 Climbing Edmonton Center
Wed 10:10:49 AM 52.3500 -114.5833 299° West 150 173 15,300 850 Climbing Edmonton Center
Wed 10:11:49 AM 52.3667 -114.6667 288° West 170 196 16,000 350 Climbing Edmonton Center
Wed 10:12:49 AM 52.4000 -114.7667 299° West 190 219 16,000  Level Edmonton Center
Wed 10:13:49 AM 52.4333 -114.8333 309° West 210 242 16,000  Level Edmonton Center
Wed 10:14:49 AM 52.4500 -114.9167 288° West 220 253 16,000  Level Edmonton Center
Wed 10:15:49 AM 52.4833 -115.0000 303° West 210 242 16,000  Level Edmonton Center
Wed 10:16:49 AM 52.5000 -115.1000 285° West 210 242 16,000  Level Edmonton Center
Wed 10:17:49 AM 52.5333 -115.1833 303° West 210 242 16,000  Level Edmonton Center
Wed 10:18:49 AM 52.5667 -115.2833 299° West 210 242 16,000  Level Edmonton Center
Wed 10:19:49 AM 52.5833 -115.3667 288° West 210 242 16,000  Level Edmonton Center
Wed 10:20:49 AM 52.6167 -115.4667 299° West 210 242 16,000  Level Edmonton Center
Wed 10:21:49 AM 52.6333 -115.5167 299° West 210 242 16,000  Level Edmonton Center
Wed 10:22:49 AM 52.6667 -115.6167 299° West 210 242 16,000  Level Edmonton Center
Wed 10:23:49 AM 52.6833 -115.7000 288° West 210 242 16,000  Level Edmonton Center
Wed 10:24:49 AM 52.7167 -115.8000 299° West 210 242 16,000  Level Edmonton Center
Wed 10:25:49 AM 52.7333 -115.8833 288° West 210 242 16,000  Level Edmonton Center
Wed 10:26:49 AM 52.7667 -115.9833 299° West 210 242 16,000  Level Edmonton Center
Wed 10:27:49 AM 52.8000 -116.0667 304° West 210 242 16,000  Level Edmonton Center
Wed 10:28:49 AM 52.8167 -116.1667 285° West 220 253 16,000  Level Edmonton Center
Wed 10:29:49 AM 52.8500 -116.2333 310° West 210 242 16,000  Level Edmonton Center
Wed 10:30:49 AM 52.8833 -116.3167 304° West 210 242 16,000  Level Edmonton Center
Wed 10:31:49 AM 52.9167 -116.4167 299° West 220 253 16,000  Level Edmonton Center
Wed 10:32:49 AM 52.9333 -116.5000 288° West 210 242 16,000 -100 Level Edmonton Center
Wed 10:33:49 AM 52.9667 -116.6000 299° West 210 242 15,800 -350 Descending Edmonton Center
Wed 10:34:49 AM 52.9833 -116.6833 288° West 210 242 15,300 -600 Descending Edmonton Center
Wed 10:35:49 AM 53.0167 -116.7833 299° West 220 253 14,600 -600 Descending Edmonton Center
Wed 10:36:49 AM 53.0333 -116.8833 286° West 220 253 14,100 -550 Descending Edmonton Center
Wed 10:37:49 AM 53.0500 -116.9667 288° West 220 253 13,500 -650 Descending Edmonton Center
Wed 10:38:49 AM 53.0833 -117.0667 299° West 210 242 12,800 -700 Descending Edmonton Center
Wed 10:39:49 AM 53.1167 -117.1333 310° West 200 230 12,100 -750 Descending Edmonton Center
Wed 10:40:49 AM 53.1333 -117.2167 288° West 200 230 11,300 -650 Descending Edmonton Center
Wed 10:41:49 AM 53.1500 -117.3167 286° West 200 230 10,800 -700 Descending Edmonton Center
Wed 10:42:49 AM 53.1833 -117.3833 310° West 190 219 9,900 -800 Descending Edmonton Center
Wed 10:43:49 AM 53.2000 -117.4667 288° West 180 207 9,200 -650 Descending Edmonton Center
Wed 10:44:49 AM 53.2167 -117.5333 293° West 180 207 8,600 -600 Descending Edmonton Center
Wed 10:46:00 AM 53.2593 -117.6184 310° West  Level FlightAware Approximate
Wed 10:53:00 AM 53.3167 -117.7500 304° West  Level FlightAware Approximate
Wed 10:54:00 AM 53.3167 -117.7500 304° West  Level FlightAware Approximate
Wed 10:55:00 AM 53.3167 -117.7500 304° West  Level FlightAware Approximate
Wed 10:56:00 AM 53.3167 -117.7500 304° West  Level FlightAware Approximate
Wed 10:57:00 AM 53.3167 -117.7500 304° West  Level FlightAware Approximate

Login

Don't have an account? Register now (free) for customized features, flight alerts, and more!